Главная страница
METAR-TAF:

METAR-TAF

Аэропорты :

Харьков, Украина

широта: 49-58N, долгота: 036-08E, высота над уровнем моря: 154 м

Текущие метеонаблюдения

Эта сводка был подготовлена 37 минут назад, в 16:30 UTC
Ветер 4 Узел от северо-северо-восточный
Температура 18°C
Влажность 37%
Давление 1018 hPa
Видимость 10 км и более
Нет облачности ниже 1500 м, и нет кучево-дождевой облачности

METAR: UKHH 191630Z 02002MPS CAVOK 18/03 Q1018 R07/0///66 NOSIG

Время: 20:07 (17:07 UTC)

Прогноз

Эта сводка был подготовлена 2 часа и 57 минут назад, в 14:10 UTC
Прогноз действительный с 19-го 15 UTC до 19-го 24 UTC
Ветер 8 Узел от северо-северо-восточный
Видимость 10 км и более
Отдельные облака на высоте 3000 фута
временами
С 19-го 19 UTC до 19-го 24 UTC
Ветер 12 Узел от северо-восточный с порывами до 23 Узел

TAF: UKHH 191410Z 1915/1924 02004MPS 9999 SCT030 TEMPO 1919/1924 04006G12MPS

Метеонаблюдения и прогнозы для более 4000 аэропортов (сводки METAR и TAF).

Имеющиеся станции представлены на карте желтыми и красными точками.

Чтобы увидеть название станции, наведите на нее мышь.

Затем щелкните, чтобы увидеть метеонаблюдения и метеопрогнозы.

Управление картой: чтобы увеличить масштаб, щелкните зеленые кнопки с черным крестиком; чтобы уменьшить масштаб, щелкните зеленую кнопку с тире; для просмотра соседних карт щелкайте зеленые стрелки.


METAR-TAF: